Terminal Aerodrome Forecast
Issued by NWS Greer, SC

Home | Current Version | Previous Version | Text Only | Print | Product List | Glossary On
Versions: 1 2 3 4 5 6 7 8 9 10 11 12 13 14 15 16 17 18 19 20 21 22 23 24 25 26 27 28 29 30 31 32 33 34 35 36 37 38 39 40 41 42
337
FTUS42 KGSP 200235 AAA
TAFAVL
TAF AMD
KAVL 200235Z 2003/2024 22005KT P6SM SCT007 OVC015
     FM200500 15004KT 4SM BR BKN010
     FM200600 15004KT 1/2SM FG BKN005
     FM201400 17005KT 1SM BR BKN008
     FM201600 17006KT P6SM BKN015
     FM202000 18008KT P6SM SCT020=

USA.gov is the U.S. government's official web portal to all federal, state and local government web resources and services.